Airfield :
LOGIN :

Register | Disclaimer

   EN    FR    IT 

 










Legend :    VFR   Marginal VFR   IFR   Intensive IFR   Very Intensive IFR
Visi :
Ceiling :
>= 8 km
>= 3000ft
5 to 8 km
1000 to 3000 ft
1500m to 5 km
500 to 1000 ft
800 to 1500m
200 to 500 ft
< 800m
< 200 ft
Symbols :   Thunderstorms  Fog  Heavy snow  Heavy precipitations  Wind > 20 kt
SIGMETs :     Misc.  Thunderstorms  Icing  Turbulence  Mountain Waves  Volcanic Ashes






- Airport Elevation : 609 ft
- IATA code : BJZ


LEBZ - Badajoz

CURRENT METAR :
  • 231730Z 09003KT CAVOK 22/08 Q1020

EXPIRED METARs :
  • 231700Z VRB02KT CAVOK 23/07 Q1020
  • 231630Z 11004KT 070V160 CAVOK 24/07 Q1020
  • 231600Z 08003KT 030V140 CAVOK 24/07 Q1020
  • 231530Z 09004KT 030V180 CAVOK 24/07 Q1020
  • 231500Z 07005KT 030V140 CAVOK 24/07 Q1020

TAF TAF LEBZ
Valid from the 23 at 15:00 until the 24 at 15:00 UTC


231400Z 2315/2415 06004KT CAVOK TX25/2415Z TN08/2407Z



MET'MAP, your aeronautical weather chart ! - Copyright ORBIFLY December 2007 - Disclaimer

ORBIFLY MET'MAP TEAM :

Programming & Development : Alexandra Zaïnal
Concept & original design : Baudouin d'Aumeries
Assistance for programming : Marc-Olivier Méhu
Technical & hardware support : Manuel Goepfert

Contact : metmap@orbifly.com




SOURCES & CREDITS :

   NOAA